Terminal Aerodrome Forecast
Issued by NWS Sterling, VA

Home | Current Version | Previous Version | Text Only | Print | Product List | Glossary On
Versions: 1 2 3 4 5 6 7 8 9 10 11 12 13 14 15 16
000
FTUS41 KLWX 050526
TAFCHO
TAF
KCHO 050526Z 0506/0606 VRB04KT P6SM BKN050 BKN200
     FM051500 29008G16KT P6SM SCT050
     FM060000 35005KT P6SM SCT130=

USA.gov is the U.S. government's official web portal to all federal, state and local government web resources and services.